»·PEaware :: N210LD KSBA-KVNY

N210LD :: KSBA-KVNY

FLIGHT INFORMATION

Flight Status: Arrived
Operator: Privately registered:
United States
More flights under this callsign
Pilot: Slade E. (12022)
Aircraft: CESSNA T210 TURBO CENTURION
(T210)
More flights by this aircraft type
Origin: KSBA Santa Barbara Mun
United States
Destination: KVNY Van Nuys
United States
More flights between these airports :: More routes between these airports
Route: KWANG CMA CMA072 GINNA
File this flight plan on PilotEdge
Remarks:
Altitude:
(Current/Filed)
3,000ft
Speed:
(Current/Filed)
150kts
Departed: 10-Feb-19 10:32 AM
Arrived: 10-Feb-19 11:20 AM
Distance/Time
Traveled:
68nm/0:48
Distance/Time
To Go:
Arrived

Flight Plot

Page will automatically refresh every two minutes.


Map Options




Map Legend


Flown Route
Filed Route
Departure Airport
Arrival Airport
Navaid (VOR, NDB)
Fix

Horizontal Profiles

Position Reports

Time Latitude Longitude Heading Altitude Ground
Speed
10-Feb-19 10:05 34.422662 -119.835593 340 16ft 0kts
10-Feb-19 10:06 34.422662 -119.835593 340 16ft 0kts
10-Feb-19 10:07 34.422662 -119.835593 340 16ft 0kts
10-Feb-19 10:08 34.422662 -119.835593 340 16ft 0kts
10-Feb-19 10:09 34.422662 -119.835593 340 16ft 0kts
10-Feb-19 10:10 34.422662 -119.835593 340 16ft 0kts
10-Feb-19 10:11 34.422662 -119.835593 340 16ft 0kts
10-Feb-19 10:12 34.422662 -119.835593 340 16ft 0kts
10-Feb-19 10:13 34.422662 -119.835593 340 16ft 0kts
10-Feb-19 10:14 34.422662 -119.835593 340 16ft 0kts
10-Feb-19 10:15 34.422662 -119.835593 340 16ft 0kts
10-Feb-19 10:15 34.422662 -119.835593 340 16ft 0kts
10-Feb-19 10:17 34.422662 -119.835593 340 16ft 0kts
10-Feb-19 10:18 34.422662 -119.835593 340 16ft 0kts
10-Feb-19 10:18 34.422662 -119.835593 340 16ft 0kts
10-Feb-19 10:19 34.422662 -119.835593 340 16ft 0kts
10-Feb-19 10:20 34.422662 -119.835593 340 16ft 0kts
10-Feb-19 10:22 34.422662 -119.835593 340 16ft 0kts
10-Feb-19 10:22 34.422662 -119.835593 340 16ft 0kts
10-Feb-19 10:23 34.422662 -119.835593 340 16ft 0kts
10-Feb-19 10:24 34.422662 -119.835593 340 16ft 0kts
10-Feb-19 10:25 34.422848 -119.837276 343 16ft 7kts
10-Feb-19 10:26 34.426784 -119.838400 343 16ft 17kts
10-Feb-19 10:27 34.430332 -119.839471 345 16ft 0kts
10-Feb-19 10:28 34.430332 -119.839471 345 16ft 0kts
10-Feb-19 10:29 34.430332 -119.839471 345 16ft 0kts
10-Feb-19 10:30 34.430595 -119.840085 250 16ft 6kts
10-Feb-19 10:31 34.413151 -119.834853 166 462ft 107kts
10-Feb-19 10:32 34.381839 -119.822211 162 1449ft 123kts
10-Feb-19 10:33 34.349951 -119.804963 162 2459ft 127kts
10-Feb-19 10:34 34.316650 -119.784781 162 3052ft 147kts
10-Feb-19 10:35 34.293508 -119.751357 82 4039ft 144kts
10-Feb-19 10:36 34.296321 -119.704305 91 4976ft 141kts
10-Feb-19 10:37 34.294285 -119.654320 95 5002ft 154kts
10-Feb-19 10:38 34.290834 -119.602112 96 5002ft 156kts
10-Feb-19 10:39 34.287256 -119.549722 96 5002ft 156kts
10-Feb-19 10:40 34.283648 -119.497354 96 5002ft 155kts
10-Feb-19 10:41 34.280064 -119.444955 95 5002ft 155kts
10-Feb-19 10:42 34.276534 -119.392533 96 5002ft 155kts
10-Feb-19 10:43 34.272907 -119.340590 97 4998ft 155kts
10-Feb-19 10:44 34.269569 -119.292637 97 4989ft 127kts
10-Feb-19 10:45 34.266641 -119.251091 97 4998ft 123kts
10-Feb-19 10:46 34.263713 -119.210077 97 4998ft 122kts
10-Feb-19 10:47 34.260562 -119.166602 97 5004ft 138kts
10-Feb-19 10:48 34.257088 -119.118483 97 5000ft 146kts
10-Feb-19 10:49 34.253468 -119.069021 97 4999ft 147kts
10-Feb-19 10:50 34.249767 -119.019407 97 4999ft 147kts
10-Feb-19 10:51 34.246096 -118.969893 97 5000ft 148kts
10-Feb-19 10:52 34.242405 -118.920028 97 4999ft 148kts
10-Feb-19 10:53 34.238712 -118.870201 97 5000ft 148kts
10-Feb-19 10:54 34.234985 -118.820225 97 5000ft 148kts
10-Feb-19 10:55 34.231296 -118.771151 97 5000ft 145kts
10-Feb-19 10:56 34.244265 -118.725679 61 5001ft 145kts
10-Feb-19 10:57 34.262955 -118.681914 61 5000ft 147kts
10-Feb-19 10:58 34.281898 -118.637901 61 5000ft 147kts
10-Feb-19 10:59 34.301066 -118.594006 61 5000ft 147kts
10-Feb-19 11:00 34.320424 -118.550436 61 5000ft 145kts
10-Feb-19 11:01 34.339996 -118.507672 61 5001ft 145kts
10-Feb-19 11:02 34.364209 -118.470871 15 5003ft 138kts
10-Feb-19 11:03 34.396362 -118.457963 13 4993ft 108kts
10-Feb-19 11:04 34.422865 -118.446956 13 4995ft 93kts
10-Feb-19 11:05 34.446514 -118.436742 13 4963ft 88kts
10-Feb-19 11:06 34.461637 -118.455203 285 4999ft 96kts
10-Feb-19 11:07 34.470735 -118.486957 284 4992ft 101kts
10-Feb-19 11:08 34.478622 -118.519736 254 4990ft 99kts
10-Feb-19 11:09 34.454068 -118.530389 152 4994ft 113kts
10-Feb-19 11:10 34.426044 -118.511211 178 4746ft 125kts
10-Feb-19 11:11 34.389601 -118.507358 179 4272ft 136kts
10-Feb-19 11:12 34.353682 -118.503928 178 3789ft 102kts
10-Feb-19 11:13 34.328571 -118.501522 178 3236ft 85kts
10-Feb-19 11:14 34.305173 -118.499345 176 2743ft 86kts
10-Feb-19 11:15 34.280714 -118.496976 176 2377ft 87kts
10-Feb-19 11:16 34.254869 -118.494606 176 1873ft 96kts
10-Feb-19 11:17 34.231229 -118.492317 175 1268ft 81kts
10-Feb-19 11:18 34.210390 -118.490417 179 806ft 45kts
10-Feb-19 11:19 34.206579 -118.491050 267 806ft 0kts
10-Feb-19 11:20 34.207254 -118.493241 357 806ft 12kts
10-Feb-19 11:21 34.207519 -118.493259 355 806ft 0kts
10-Feb-19 11:22 34.207519 -118.493259 355 806ft 0kts
10-Feb-19 11:23 34.207519 -118.493259 355 806ft 0kts
10-Feb-19 11:24 34.207519 -118.493259 355 806ft 0kts
10-Feb-19 11:25 34.207519 -118.493259 355 806ft 0kts
10-Feb-19 11:26 34.207519 -118.493259 355 806ft 0kts
10-Feb-19 11:27 34.207519 -118.493259 355 806ft 0kts
10-Feb-19 11:28 34.207519 -118.493259 355 806ft 0kts
10-Feb-19 11:29 34.207519 -118.493259 355 806ft 0kts
10-Feb-19 11:30 34.207519 -118.493259 355 806ft 0kts
10-Feb-19 11:31 34.207519 -118.493259 355 806ft 0kts
10-Feb-19 11:32 34.207519 -118.493259 355 806ft 0kts
10-Feb-19 11:33 34.207519 -118.493259 355 806ft 0kts

Navigation Log

Ident Type
Flight plan parsing failed, navigation log unavailable